sensor_id;sensor_type;location;lat;lon;timestamp;pressure;altitude;pressure_sealevel;temperature;humidity
74242;BME280;62599;49.146;10.426;2023-02-04T00:00:19;96695.53;;;3.64;100.00
74242;BME280;62599;49.146;10.426;2023-02-04T00:02:44;96700.31;;;3.56;100.00
74242;BME280;62599;49.146;10.426;2023-02-04T00:05:11;96710.16;;;3.56;100.00
74242;BME280;62599;49.146;10.426;2023-02-04T00:07:36;96703.72;;;3.52;100.00
74242;BME280;62599;49.146;10.426;2023-02-04T00:10:03;96696.81;;;3.46;100.00
74242;BME280;62599;49.146;10.426;2023-02-04T00:12:29;96697.56;;;3.36;100.00
74242;BME280;62599;49.146;10.426;2023-02-04T00:14:55;96685.56;;;3.33;100.00
74242;BME280;62599;49.146;10.426;2023-02-04T00:17:20;96689.78;;;3.24;100.00
74242;BME280;62599;49.146;10.426;2023-02-04T00:19:45;96713.97;;;3.18;100.00
74242;BME280;62599;49.146;10.426;2023-02-04T00:22:11;96708.94;;;3.26;100.00
74242;BME280;62599;49.146;10.426;2023-02-04T00:24:37;96707.13;;;3.27;100.00
74242;BME280;62599;49.146;10.426;2023-02-04T00:27:04;96710.31;;;3.34;100.00
74242;BME280;62599;49.146;10.426;2023-02-04T00:29:29;96710.88;;;3.41;100.00
74242;BME280;62599;49.146;10.426;2023-02-04T00:31:55;96698.69;;;3.45;100.00
74242;BME280;62599;49.146;10.426;2023-02-04T00:34:20;96708.25;;;3.46;100.00
74242;BME280;62599;49.146;10.426;2023-02-04T00:36:46;96709.28;;;3.40;100.00
74242;BME280;62599;49.146;10.426;2023-02-04T00:39:11;96702.41;;;3.49;100.00
74242;BME280;62599;49.146;10.426;2023-02-04T00:41:37;96700.00;;;3.48;100.00
74242;BME280;62599;49.146;10.426;2023-02-04T00:44:03;96705.06;;;3.49;100.00
74242;BME280;62599;49.146;10.426;2023-02-04T00:46:28;96694.38;;;3.39;100.00
74242;BME280;62599;49.146;10.426;2023-02-04T00:48:53;96695.97;;;3.40;100.00
74242;BME280;62599;49.146;10.426;2023-02-04T00:51:19;96713.25;;;3.37;100.00
74242;BME280;62599;49.146;10.426;2023-02-04T00:53:44;96715.41;;;3.35;100.00
74242;BME280;62599;49.146;10.426;2023-02-04T00:56:10;96709.84;;;3.42;100.00
74242;BME280;62599;49.146;10.426;2023-02-04T00:58:35;96721.53;;;3.41;100.00
74242;BME280;62599;49.146;10.426;2023-02-04T01:01:01;96721.53;;;3.36;100.00
74242;BME280;62599;49.146;10.426;2023-02-04T01:03:27;96715.63;;;3.29;100.00
74242;BME280;62599;49.146;10.426;2023-02-04T01:05:52;96723.63;;;3.34;100.00
74242;BME280;62599;49.146;10.426;2023-02-04T01:08:17;96727.59;;;3.26;100.00
74242;BME280;62599;49.146;10.426;2023-02-04T01:10:43;96699.94;;;3.27;100.00
74242;BME280;62599;49.146;10.426;2023-02-04T01:13:08;96717.19;;;3.20;100.00
74242;BME280;62599;49.146;10.426;2023-02-04T01:15:34;96723.53;;;3.13;100.00
74242;BME280;62599;49.146;10.426;2023-02-04T01:18:00;96728.31;;;3.11;100.00
74242;BME280;62599;49.146;10.426;2023-02-04T01:20:25;96741.03;;;3.04;100.00
74242;BME280;62599;49.146;10.426;2023-02-04T01:22:51;96751.06;;;2.92;100.00
74242;BME280;62599;49.146;10.426;2023-02-04T01:25:17;96757.00;;;3.04;100.00
74242;BME280;62599;49.146;10.426;2023-02-04T01:27:43;96765.53;;;3.06;100.00
74242;BME280;62599;49.146;10.426;2023-02-04T01:30:13;96749.34;;;3.13;100.00
74242;BME280;62599;49.146;10.426;2023-02-04T01:32:39;96753.53;;;2.99;100.00
74242;BME280;62599;49.146;10.426;2023-02-04T01:35:05;96763.41;;;3.08;100.00
74242;BME280;62599;49.146;10.426;2023-02-04T01:37:31;96765.84;;;3.10;100.00
74242;BME280;62599;49.146;10.426;2023-02-04T01:39:56;96771.94;;;3.10;100.00
74242;BME280;62599;49.146;10.426;2023-02-04T01:42:22;96776.19;;;3.06;100.00
74242;BME280;62599;49.146;10.426;2023-02-04T01:44:48;96779.06;;;3.00;100.00
74242;BME280;62599;49.146;10.426;2023-02-04T01:47:14;96779.28;;;2.93;100.00
74242;BME280;62599;49.146;10.426;2023-02-04T01:49:39;96772.09;;;2.94;100.00
74242;BME280;62599;49.146;10.426;2023-02-04T01:52:05;96770.50;;;2.93;100.00
74242;BME280;62599;49.146;10.426;2023-02-04T01:54:31;96774.22;;;2.92;100.00
74242;BME280;62599;49.146;10.426;2023-02-04T01:56:56;96781.34;;;2.86;100.00
74242;BME280;62599;49.146;10.426;2023-02-04T01:59:22;96771.84;;;2.95;100.00
74242;BME280;62599;49.146;10.426;2023-02-04T02:01:49;96771.34;;;2.98;100.00
74242;BME280;62599;49.146;10.426;2023-02-04T02:04:30;96792.06;;;2.96;100.00
74242;BME280;62599;49.146;10.426;2023-02-04T02:06:59;96795.28;;;2.98;100.00
74242;BME280;62599;49.146;10.426;2023-02-04T02:09:26;96801.06;;;2.90;100.00
74242;BME280;62599;49.146;10.426;2023-02-04T02:11:52;96801.75;;;2.75;100.00
74242;BME280;62599;49.146;10.426;2023-02-04T02:14:18;96808.03;;;2.64;100.00
74242;BME280;62599;49.146;10.426;2023-02-04T02:16:43;96809.31;;;2.56;100.00
74242;BME280;62599;49.146;10.426;2023-02-04T02:19:12;96815.91;;;2.54;100.00
74242;BME280;62599;49.146;10.426;2023-02-04T02:21:44;96820.31;;;2.43;100.00
74242;BME280;62599;49.146;10.426;2023-02-04T02:24:28;96827.16;;;2.34;100.00
74242;BME280;62599;49.146;10.426;2023-02-04T02:26:56;96830.34;;;2.36;100.00
74242;BME280;62599;49.146;10.426;2023-02-04T02:29:22;96834.88;;;2.35;100.00
74242;BME280;62599;49.146;10.426;2023-02-04T02:31:48;96843.72;;;2.41;100.00
74242;BME280;62599;49.146;10.426;2023-02-04T02:34:14;96847.13;;;2.36;100.00
74242;BME280;62599;49.146;10.426;2023-02-04T02:36:40;96847.03;;;2.26;100.00
74242;BME280;62599;49.146;10.426;2023-02-04T02:39:06;96848.31;;;2.24;100.00
74242;BME280;62599;49.146;10.426;2023-02-04T02:41:31;96853.09;;;2.22;100.00
74242;BME280;62599;49.146;10.426;2023-02-04T02:44:00;96857.03;;;2.19;100.00
74242;BME280;62599;49.146;10.426;2023-02-04T02:46:26;96851.41;;;2.15;100.00
74242;BME280;62599;49.146;10.426;2023-02-04T02:48:51;96867.84;;;2.12;100.00
74242;BME280;62599;49.146;10.426;2023-02-04T02:51:17;96872.50;;;2.00;100.00
74242;BME280;62599;49.146;10.426;2023-02-04T02:53:44;96873.66;;;1.87;100.00
74242;BME280;62599;49.146;10.426;2023-02-04T02:56:10;96882.66;;;1.86;100.00
74242;BME280;62599;49.146;10.426;2023-02-04T02:58:35;96896.59;;;1.93;100.00
74242;BME280;62599;49.146;10.426;2023-02-04T03:01:03;96907.34;;;2.04;100.00
74242;BME280;62599;49.146;10.426;2023-02-04T03:03:32;96892.44;;;2.03;100.00
74242;BME280;62599;49.146;10.426;2023-02-04T03:06:18;96909.25;;;2.08;100.00
74242;BME280;62599;49.146;10.426;2023-02-04T03:08:45;96904.38;;;2.22;100.00
74242;BME280;62599;49.146;10.426;2023-02-04T03:11:11;96914.56;;;2.30;100.00
74242;BME280;62599;49.146;10.426;2023-02-04T03:13:37;96916.97;;;2.32;100.00
74242;BME280;62599;49.146;10.426;2023-02-04T03:16:04;96923.91;;;2.33;100.00
74242;BME280;62599;49.146;10.426;2023-02-04T03:18:30;96923.41;;;2.36;100.00
74242;BME280;62599;49.146;10.426;2023-02-04T03:20:56;96929.84;;;2.40;100.00
74242;BME280;62599;49.146;10.426;2023-02-04T03:23:23;96929.59;;;2.41;100.00
74242;BME280;62599;49.146;10.426;2023-02-04T03:25:49;96932.88;;;2.49;100.00
74242;BME280;62599;49.146;10.426;2023-02-04T03:28:14;96944.31;;;2.49;100.00
74242;BME280;62599;49.146;10.426;2023-02-04T03:30:40;96956.03;;;2.53;100.00
74242;BME280;62599;49.146;10.426;2023-02-04T03:33:05;96939.47;;;2.46;100.00
74242;BME280;62599;49.146;10.426;2023-02-04T03:35:30;96946.47;;;2.52;100.00
74242;BME280;62599;49.146;10.426;2023-02-04T03:37:56;96944.56;;;2.48;100.00
74242;BME280;62599;49.146;10.426;2023-02-04T03:40:21;96939.56;;;2.51;100.00
74242;BME280;62599;49.146;10.426;2023-02-04T03:42:47;96936.63;;;2.53;100.00
74242;BME280;62599;49.146;10.426;2023-02-04T03:45:12;96936.59;;;2.48;100.00
74242;BME280;62599;49.146;10.426;2023-02-04T03:47:37;96941.34;;;2.46;100.00
74242;BME280;62599;49.146;10.426;2023-02-04T03:50:03;96938.94;;;2.44;100.00
74242;BME280;62599;49.146;10.426;2023-02-04T03:52:29;96944.88;;;2.51;100.00
74242;BME280;62599;49.146;10.426;2023-02-04T03:54:54;96945.59;;;2.47;100.00
74242;BME280;62599;49.146;10.426;2023-02-04T03:57:20;96937.44;;;2.53;100.00
74242;BME280;62599;49.146;10.426;2023-02-04T03:59:45;96939.25;;;2.48;100.00
74242;BME280;62599;49.146;10.426;2023-02-04T04:02:11;96937.91;;;2.50;100.00
74242;BME280;62599;49.146;10.426;2023-02-04T04:04:36;96938.66;;;2.46;100.00
74242;BME280;62599;49.146;10.426;2023-02-04T04:07:02;96937.22;;;2.33;100.00
74242;BME280;62599;49.146;10.426;2023-02-04T04:09:27;96935.16;;;2.40;100.00
74242;BME280;62599;49.146;10.426;2023-02-04T04:11:53;96931.38;;;2.36;100.00
74242;BME280;62599;49.146;10.426;2023-02-04T04:14:18;96937.69;;;2.30;100.00
74242;BME280;62599;49.146;10.426;2023-02-04T04:16:44;96935.56;;;2.32;100.00
74242;BME280;62599;49.146;10.426;2023-02-04T04:19:09;96946.28;;;2.37;100.00
74242;BME280;62599;49.146;10.426;2023-02-04T04:21:35;96947.88;;;2.38;100.00
74242;BME280;62599;49.146;10.426;2023-02-04T04:24:00;96958.22;;;2.34;100.00
74242;BME280;62599;49.146;10.426;2023-02-04T04:26:28;96953.50;;;2.20;100.00
74242;BME280;62599;49.146;10.426;2023-02-04T04:28:54;96966.13;;;2.29;100.00
74242;BME280;62599;49.146;10.426;2023-02-04T04:31:19;96965.63;;;2.32;100.00
74242;BME280;62599;49.146;10.426;2023-02-04T04:33:44;96969.28;;;2.26;100.00
74242;BME280;62599;49.146;10.426;2023-02-04T04:36:10;96973.78;;;2.26;100.00
74242;BME280;62599;49.146;10.426;2023-02-04T04:38:35;96974.94;;;2.13;100.00
74242;BME280;62599;49.146;10.426;2023-02-04T04:41:00;96981.22;;;2.07;100.00
74242;BME280;62599;49.146;10.426;2023-02-04T04:43:26;96984.28;;;2.15;100.00
74242;BME280;62599;49.146;10.426;2023-02-04T04:45:51;96980.56;;;2.16;100.00
74242;BME280;62599;49.146;10.426;2023-02-04T04:48:17;96988.72;;;2.10;100.00
74242;BME280;62599;49.146;10.426;2023-02-04T04:50:42;96995.09;;;2.09;100.00
74242;BME280;62599;49.146;10.426;2023-02-04T04:53:08;96997.47;;;2.10;100.00
74242;BME280;62599;49.146;10.426;2023-02-04T04:55:38;96991.00;;;2.01;100.00
74242;BME280;62599;49.146;10.426;2023-02-04T04:58:08;97004.59;;;2.05;100.00
74242;BME280;62599;49.146;10.426;2023-02-04T05:00:34;97005.34;;;2.00;100.00
74242;BME280;62599;49.146;10.426;2023-02-04T05:02:59;97003.97;;;1.98;100.00
74242;BME280;62599;49.146;10.426;2023-02-04T05:05:25;96996.25;;;1.96;100.00
74242;BME280;62599;49.146;10.426;2023-02-04T05:07:50;96996.09;;;1.86;100.00
74242;BME280;62599;49.146;10.426;2023-02-04T05:10:18;97000.41;;;1.92;100.00
74242;BME280;62599;49.146;10.426;2023-02-04T05:12:43;97006.72;;;1.86;100.00
74242;BME280;62599;49.146;10.426;2023-02-04T05:15:09;97000.28;;;1.82;100.00
74242;BME280;62599;49.146;10.426;2023-02-04T05:17:37;96998.47;;;1.71;100.00
74242;BME280;62599;49.146;10.426;2023-02-04T05:20:03;97002.59;;;1.61;100.00
74242;BME280;62599;49.146;10.426;2023-02-04T05:22:29;97009.13;;;1.54;100.00
74242;BME280;62599;49.146;10.426;2023-02-04T05:24:54;97001.69;;;1.56;100.00
74242;BME280;62599;49.146;10.426;2023-02-04T05:27:20;97011.03;;;1.58;100.00
74242;BME280;62599;49.146;10.426;2023-02-04T05:29:45;97014.09;;;1.50;100.00
74242;BME280;62599;49.146;10.426;2023-02-04T05:32:14;97009.09;;;1.37;100.00
74242;BME280;62599;49.146;10.426;2023-02-04T05:34:39;97013.41;;;1.26;100.00
74242;BME280;62599;49.146;10.426;2023-02-04T05:37:04;97024.13;;;1.31;100.00
74242;BME280;62599;49.146;10.426;2023-02-04T05:39:30;97030.13;;;1.27;100.00
74242;BME280;62599;49.146;10.426;2023-02-04T05:41:55;97034.50;;;1.33;100.00
74242;BME280;62599;49.146;10.426;2023-02-04T05:44:20;97029.28;;;1.38;100.00
74242;BME280;62599;49.146;10.426;2023-02-04T05:46:46;97035.75;;;1.42;100.00
74242;BME280;62599;49.146;10.426;2023-02-04T05:49:11;97034.22;;;1.46;100.00
74242;BME280;62599;49.146;10.426;2023-02-04T05:51:36;97037.22;;;1.38;100.00
74242;BME280;62599;49.146;10.426;2023-02-04T05:54:02;97046.72;;;1.34;100.00
74242;BME280;62599;49.146;10.426;2023-02-04T05:56:28;97044.25;;;1.44;100.00
74242;BME280;62599;49.146;10.426;2023-02-04T05:58:54;97058.66;;;1.48;100.00
74242;BME280;62599;49.146;10.426;2023-02-04T06:01:19;97065.75;;;1.42;100.00
74242;BME280;62599;49.146;10.426;2023-02-04T06:03:45;97070.06;;;1.49;100.00
74242;BME280;62599;49.146;10.426;2023-02-04T06:06:10;97074.50;;;1.43;100.00
74242;BME280;62599;49.146;10.426;2023-02-04T06:08:36;97087.06;;;1.48;100.00
74242;BME280;62599;49.146;10.426;2023-02-04T06:11:01;97079.81;;;1.43;100.00
74242;BME280;62599;49.146;10.426;2023-02-04T06:13:26;97088.81;;;1.42;100.00
74242;BME280;62599;49.146;10.426;2023-02-04T06:15:52;97093.81;;;1.38;100.00
74242;BME280;62599;49.146;10.426;2023-02-04T06:18:17;97103.59;;;1.38;100.00
74242;BME280;62599;49.146;10.426;2023-02-04T06:20:42;97104.16;;;1.40;100.00
74242;BME280;62599;49.146;10.426;2023-02-04T06:23:08;97105.09;;;1.46;100.00
74242;BME280;62599;49.146;10.426;2023-02-04T06:25:33;97111.19;;;1.46;100.00
74242;BME280;62599;49.146;10.426;2023-02-04T06:27:59;97112.41;;;1.55;100.00
74242;BME280;62599;49.146;10.426;2023-02-04T06:30:24;97115.31;;;1.54;100.00
74242;BME280;62599;49.146;10.426;2023-02-04T06:32:49;97120.94;;;1.57;100.00
74242;BME280;62599;49.146;10.426;2023-02-04T06:35:15;97124.28;;;1.64;100.00
74242;BME280;62599;49.146;10.426;2023-02-04T06:37:41;97116.44;;;1.58;100.00
74242;BME280;62599;49.146;10.426;2023-02-04T06:40:10;97117.72;;;1.55;100.00
74242;BME280;62599;49.146;10.426;2023-02-04T06:42:36;97126.25;;;1.57;100.00
74242;BME280;62599;49.146;10.426;2023-02-04T06:45:01;97125.88;;;1.65;100.00
74242;BME280;62599;49.146;10.426;2023-02-04T06:47:27;97131.19;;;1.65;100.00
74242;BME280;62599;49.146;10.426;2023-02-04T06:49:55;97127.47;;;1.66;100.00
74242;BME280;62599;49.146;10.426;2023-02-04T06:52:20;97128.59;;;1.71;100.00
74242;BME280;62599;49.146;10.426;2023-02-04T06:54:45;97127.66;;;1.77;100.00
74242;BME280;62599;49.146;10.426;2023-02-04T06:57:13;97125.09;;;1.82;100.00
74242;BME280;62599;49.146;10.426;2023-02-04T06:59:39;97126.47;;;1.84;100.00
74242;BME280;62599;49.146;10.426;2023-02-04T07:02:07;97128.97;;;1.91;100.00
74242;BME280;62599;49.146;10.426;2023-02-04T07:04:35;97135.56;;;1.88;100.00
74242;BME280;62599;49.146;10.426;2023-02-04T07:07:00;97140.06;;;1.88;100.00
74242;BME280;62599;49.146;10.426;2023-02-04T07:09:25;97143.84;;;1.92;100.00
74242;BME280;62599;49.146;10.426;2023-02-04T07:11:51;97137.25;;;1.95;100.00
74242;BME280;62599;49.146;10.426;2023-02-04T07:14:16;97151.13;;;1.97;100.00
74242;BME280;62599;49.146;10.426;2023-02-04T07:16:43;97154.34;;;1.99;100.00
74242;BME280;62599;49.146;10.426;2023-02-04T07:19:08;97157.78;;;1.99;100.00
74242;BME280;62599;49.146;10.426;2023-02-04T07:21:33;97158.03;;;1.98;100.00
74242;BME280;62599;49.146;10.426;2023-02-04T07:23:59;97155.13;;;1.99;100.00
74242;BME280;62599;49.146;10.426;2023-02-04T07:26:24;97170.53;;;1.97;100.00
74242;BME280;62599;49.146;10.426;2023-02-04T07:28:50;97184.94;;;2.01;100.00
74242;BME280;62599;49.146;10.426;2023-02-04T07:31:15;97187.28;;;1.98;100.00
74242;BME280;62599;49.146;10.426;2023-02-04T07:33:40;97185.50;;;2.03;100.00
74242;BME280;62599;49.146;10.426;2023-02-04T07:36:06;97189.84;;;2.09;100.00
74242;BME280;62599;49.146;10.426;2023-02-04T07:38:32;97190.75;;;2.15;100.00
74242;BME280;62599;49.146;10.426;2023-02-04T07:40:57;97205.41;;;2.17;100.00
74242;BME280;62599;49.146;10.426;2023-02-04T07:43:22;97205.91;;;2.14;100.00
74242;BME280;62599;49.146;10.426;2023-02-04T07:45:48;97212.16;;;2.08;100.00
74242;BME280;62599;49.146;10.426;2023-02-04T07:48:13;97220.03;;;2.03;100.00
74242;BME280;62599;49.146;10.426;2023-02-04T07:50:39;97225.25;;;1.98;100.00
74242;BME280;62599;49.146;10.426;2023-02-04T07:53:04;97237.16;;;1.96;100.00
74242;BME280;62599;49.146;10.426;2023-02-04T07:55:30;97237.66;;;1.92;100.00
74242;BME280;62599;49.146;10.426;2023-02-04T07:57:55;97254.97;;;1.95;100.00
74242;BME280;62599;49.146;10.426;2023-02-04T08:00:21;97247.09;;;2.00;100.00
74242;BME280;62599;49.146;10.426;2023-02-04T08:02:46;97253.56;;;2.04;100.00
74242;BME280;62599;49.146;10.426;2023-02-04T08:05:12;97247.25;;;2.10;100.00
74242;BME280;62599;49.146;10.426;2023-02-04T08:07:38;97246.66;;;2.20;100.00
74242;BME280;62599;49.146;10.426;2023-02-04T08:10:12;97240.53;;;2.20;100.00
74242;BME280;62599;49.146;10.426;2023-02-04T08:12:49;97245.38;;;2.23;100.00
74242;BME280;62599;49.146;10.426;2023-02-04T08:15:15;97242.94;;;2.21;100.00
74242;BME280;62599;49.146;10.426;2023-02-04T08:17:40;97243.53;;;2.23;100.00
74242;BME280;62599;49.146;10.426;2023-02-04T08:20:06;97248.84;;;2.23;100.00
74242;BME280;62599;49.146;10.426;2023-02-04T08:22:31;97249.63;;;2.24;100.00
74242;BME280;62599;49.146;10.426;2023-02-04T08:25:01;97252.63;;;2.27;100.00
74242;BME280;62599;49.146;10.426;2023-02-04T08:27:26;97267.31;;;2.30;100.00
74242;BME280;62599;49.146;10.426;2023-02-04T08:29:52;97270.03;;;2.35;100.00
74242;BME280;62599;49.146;10.426;2023-02-04T08:32:19;97270.16;;;2.40;100.00
74242;BME280;62599;49.146;10.426;2023-02-04T08:34:44;97272.56;;;2.41;100.00
74242;BME280;62599;49.146;10.426;2023-02-04T08:37:12;97275.06;;;2.48;100.00
74242;BME280;62599;49.146;10.426;2023-02-04T08:39:37;97281.44;;;2.47;100.00
74242;BME280;62599;49.146;10.426;2023-02-04T08:42:04;97293.91;;;2.47;100.00
74242;BME280;62599;49.146;10.426;2023-02-04T08:44:29;97302.31;;;2.55;100.00
74242;BME280;62599;49.146;10.426;2023-02-04T08:46:57;97304.50;;;2.58;100.00
74242;BME280;62599;49.146;10.426;2023-02-04T08:49:23;97309.41;;;2.67;100.00
74242;BME280;62599;49.146;10.426;2023-02-04T08:51:48;97311.19;;;2.78;100.00
74242;BME280;62599;49.146;10.426;2023-02-04T08:54:16;97306.06;;;2.88;100.00
74242;BME280;62599;49.146;10.426;2023-02-04T09:04:21;97342.41;;;2.37;100.00
74242;BME280;62599;49.146;10.426;2023-02-04T09:06:48;97344.97;;;1.80;100.00
74242;BME280;62599;49.146;10.426;2023-02-04T09:09:14;97356.78;;;1.49;100.00
74242;BME280;62599;49.146;10.426;2023-02-04T09:11:40;97356.09;;;1.30;100.00
74242;BME280;62599;49.146;10.426;2023-02-04T09:14:05;97356.19;;;1.11;100.00
74242;BME280;62599;49.146;10.426;2023-02-04T09:16:31;97357.56;;;1.02;100.00
74242;BME280;62599;49.146;10.426;2023-02-04T09:18:56;97352.59;;;0.94;100.00
74242;BME280;62599;49.146;10.426;2023-02-04T09:21:26;97354.31;;;0.88;100.00
74242;BME280;62599;49.146;10.426;2023-02-04T09:23:52;97356.38;;;0.86;100.00
74242;BME280;62599;49.146;10.426;2023-02-04T09:26:18;97371.03;;;0.89;100.00
74242;BME280;62599;49.146;10.426;2023-02-04T09:28:46;97365.50;;;0.90;100.00
74242;BME280;62599;49.146;10.426;2023-02-04T09:31:13;97370.78;;;0.90;100.00
74242;BME280;62599;49.146;10.426;2023-02-04T09:33:38;97374.28;;;1.03;100.00
74242;BME280;62599;49.146;10.426;2023-02-04T09:36:04;97380.06;;;1.11;100.00
74242;BME280;62599;49.146;10.426;2023-02-04T09:38:29;97380.44;;;1.27;100.00
74242;BME280;62599;49.146;10.426;2023-02-04T09:40:58;97385.53;;;1.40;100.00
74242;BME280;62599;49.146;10.426;2023-02-04T09:43:28;97396.03;;;1.47;100.00
74242;BME280;62599;49.146;10.426;2023-02-04T09:45:55;97394.44;;;1.46;100.00
74242;BME280;62599;49.146;10.426;2023-02-04T09:48:22;97395.78;;;1.36;100.00
74242;BME280;62599;49.146;10.426;2023-02-04T09:50:49;97398.44;;;1.36;100.00
74242;BME280;62599;49.146;10.426;2023-02-04T09:53:18;97404.00;;;1.47;100.00
74242;BME280;62599;49.146;10.426;2023-02-04T09:55:46;97402.03;;;1.54;100.00
74242;BME280;62599;49.146;10.426;2023-02-04T09:58:14;97408.84;;;1.73;100.00
74242;BME280;62599;49.146;10.426;2023-02-04T10:00:44;97417.25;;;2.05;100.00
74242;BME280;62599;49.146;10.426;2023-02-04T10:03:15;97411.84;;;2.40;100.00
74242;BME280;62599;49.146;10.426;2023-02-04T10:05:41;97410.69;;;2.77;100.00
74242;BME280;62599;49.146;10.426;2023-02-04T10:08:12;97415.91;;;3.17;100.00
74242;BME280;62599;49.146;10.426;2023-02-04T10:10:38;97414.63;;;3.20;92.87
74242;BME280;62599;49.146;10.426;2023-02-04T10:13:03;97409.31;;;3.36;93.07
74242;BME280;62599;49.146;10.426;2023-02-04T10:15:29;97422.84;;;3.52;92.33
74242;BME280;62599;49.146;10.426;2023-02-04T10:18:02;97414.63;;;3.53;93.00
74242;BME280;62599;49.146;10.426;2023-02-04T10:20:29;97407.28;;;3.60;92.96
74242;BME280;62599;49.146;10.426;2023-02-04T10:22:55;97418.38;;;3.91;94.74
74242;BME280;62599;49.146;10.426;2023-02-04T10:25:23;97419.91;;;4.04;92.67
74242;BME280;62599;49.146;10.426;2023-02-04T10:27:52;97420.66;;;4.21;92.33
74242;BME280;62599;49.146;10.426;2023-02-04T10:30:36;97432.75;;;4.29;89.64
74242;BME280;62599;49.146;10.426;2023-02-04T10:33:13;97422.25;;;4.00;81.83
74242;BME280;62599;49.146;10.426;2023-02-04T10:35:47;97419.13;;;3.70;82.46
74242;BME280;62599;49.146;10.426;2023-02-04T10:38:13;97418.47;;;3.79;84.22
74242;BME280;62599;49.146;10.426;2023-02-04T10:40:39;97418.03;;;4.04;85.53
74242;BME280;62599;49.146;10.426;2023-02-04T10:43:16;97419.53;;;3.78;80.84
74242;BME280;62599;49.146;10.426;2023-02-04T10:45:47;97422.09;;;3.90;84.99
74242;BME280;62599;49.146;10.426;2023-02-04T10:48:22;97409.16;;;3.99;83.24
74242;BME280;62599;49.146;10.426;2023-02-04T10:50:48;97405.78;;;4.03;82.96
74242;BME280;62599;49.146;10.426;2023-02-04T10:53:18;97412.63;;;3.99;82.89
74242;BME280;62599;49.146;10.426;2023-02-04T10:56:04;97407.69;;;4.08;84.66
74242;BME280;62599;49.146;10.426;2023-02-04T10:58:31;97411.59;;;4.00;83.06
74242;BME280;62599;49.146;10.426;2023-02-04T11:00:56;97409.69;;;4.18;83.73
74242;BME280;62599;49.146;10.426;2023-02-04T11:03:29;97408.06;;;4.17;82.94
74242;BME280;62599;49.146;10.426;2023-02-04T11:05:59;97395.44;;;4.29;82.93
74242;BME280;62599;49.146;10.426;2023-02-04T11:08:33;97409.25;;;4.26;82.89
74242;BME280;62599;49.146;10.426;2023-02-04T11:14:01;97403.28;;;3.97;79.16
74242;BME280;62599;49.146;10.426;2023-02-04T11:16:46;97408.97;;;4.05;80.36
74242;BME280;62599;49.146;10.426;2023-02-04T11:19:13;97415.38;;;4.04;79.48
74242;BME280;62599;49.146;10.426;2023-02-04T11:26:37;97410.22;;;4.42;79.95
74242;BME280;62599;49.146;10.426;2023-02-04T11:39:15;97425.00;;;4.27;77.21
74242;BME280;62599;49.146;10.426;2023-02-04T11:41:44;97415.44;;;4.53;77.53
74242;BME280;62599;49.146;10.426;2023-02-04T11:44:10;97420.47;;;4.28;75.21
74242;BME280;62599;49.146;10.426;2023-02-04T11:46:36;97415.44;;;4.53;76.96
74242;BME280;62599;49.146;10.426;2023-02-04T11:49:01;97405.03;;;4.79;77.95
74242;BME280;62599;49.146;10.426;2023-02-04T11:51:30;97410.22;;;5.18;77.33
74242;BME280;62599;49.146;10.426;2023-02-04T11:53:56;97407.84;;;5.21;73.59
74242;BME280;62599;49.146;10.426;2023-02-04T11:56:22;97411.94;;;4.75;72.97
74242;BME280;62599;49.146;10.426;2023-02-04T11:58:55;97410.91;;;4.32;73.09
74242;BME280;62599;49.146;10.426;2023-02-04T12:01:29;97406.44;;;4.59;74.35
74242;BME280;62599;49.146;10.426;2023-02-04T12:03:57;97399.78;;;4.84;74.78
74242;BME280;62599;49.146;10.426;2023-02-04T12:06:27;97408.84;;;4.61;75.74
74242;BME280;62599;49.146;10.426;2023-02-04T12:11:51;97417.69;;;4.40;74.87
74242;BME280;62599;49.146;10.426;2023-02-04T12:14:17;97411.97;;;4.53;74.56
74242;BME280;62599;49.146;10.426;2023-02-04T12:16:50;97411.28;;;4.63;75.47
74242;BME280;62599;49.146;10.426;2023-02-04T12:19:18;97417.31;;;4.53;74.91
74242;BME280;62599;49.146;10.426;2023-02-04T12:21:44;97421.22;;;4.45;76.39
74242;BME280;62599;49.146;10.426;2023-02-04T12:24:09;97422.63;;;4.31;75.46
74242;BME280;62599;49.146;10.426;2023-02-04T12:26:38;97424.69;;;4.24;75.95
74242;BME280;62599;49.146;10.426;2023-02-04T12:29:03;97425.53;;;4.07;77.85
74242;BME280;62599;49.146;10.426;2023-02-04T12:31:30;97420.00;;;3.92;75.78
74242;BME280;62599;49.146;10.426;2023-02-04T12:33:56;97428.25;;;3.74;76.09
74242;BME280;62599;49.146;10.426;2023-02-04T12:36:22;97426.56;;;3.68;76.88
74242;BME280;62599;49.146;10.426;2023-02-04T12:38:47;97428.66;;;3.66;77.54
74242;BME280;62599;49.146;10.426;2023-02-04T12:41:12;97431.50;;;3.76;77.69
74242;BME280;62599;49.146;10.426;2023-02-04T12:43:38;97435.41;;;4.07;77.10
74242;BME280;62599;49.146;10.426;2023-02-04T12:46:03;97434.84;;;4.27;76.33
74242;BME280;62599;49.146;10.426;2023-02-04T12:48:29;97432.31;;;4.37;73.89
74242;BME280;62599;49.146;10.426;2023-02-04T12:50:54;97435.66;;;4.49;75.59
74242;BME280;62599;49.146;10.426;2023-02-04T12:53:20;97427.25;;;4.85;74.57
74242;BME280;62599;49.146;10.426;2023-02-04T12:55:45;97431.66;;;4.69;73.07
74242;BME280;62599;49.146;10.426;2023-02-04T12:58:12;97431.22;;;4.55;72.64
74242;BME280;62599;49.146;10.426;2023-02-04T13:00:37;97435.31;;;4.63;72.15
74242;BME280;62599;49.146;10.426;2023-02-04T13:03:03;97422.81;;;4.46;72.08
74242;BME280;62599;49.146;10.426;2023-02-04T13:05:29;97438.34;;;4.49;72.52
74242;BME280;62599;49.146;10.426;2023-02-04T13:07:57;97437.31;;;4.50;72.44
74242;BME280;62599;49.146;10.426;2023-02-04T13:10:26;97444.91;;;4.20;72.45
74242;BME280;62599;49.146;10.426;2023-02-04T13:12:51;97445.25;;;4.06;73.00
74242;BME280;62599;49.146;10.426;2023-02-04T13:15:17;97452.06;;;3.97;73.88
74242;BME280;62599;49.146;10.426;2023-02-04T13:17:43;97446.84;;;3.69;72.94